Time;durP1;ratioP1;P1;durP2;ratioP2;P2;SDS_P1;SDS_P2;PMS_P1;PMS_P2;Temp;Humidity;BMP_temperature;BMP_pressure;BME280_temperature;BME280_humidity;BME280_pressure;Samples;Min_cycle;Max_cycle;Signal;HPM_P1;HPM_P2
2021/12/01 00:00:49;;;;;;;;;2.50;2.25;;;;;16.38;47.13;96761.22;4890793;28;102638;-92
2021/12/01 00:03:16;;;;;;;;;3.50;2.00;;;;;16.39;46.91;96771.00;4889613;28;102880;-93
2021/12/01 00:05:44;;;;;;;;;2.00;2.00;;;;;16.38;47.48;96774.03;4895515;28;102474;-92
2021/12/01 00:08:11;;;;;;;;;2.25;2.25;;;;;16.39;47.11;96776.47;4892617;28;104085;-93
2021/12/01 00:10:38;;;;;;;;;3.00;3.00;;;;;16.41;47.28;96776.19;4886769;28;110813;-94
2021/12/01 00:13:07;;;;;;;;;3.00;2.25;;;;;16.41;46.94;96798.84;4881481;28;102722;-94
2021/12/01 00:15:34;;;;;;;;;3.00;2.00;;;;;16.42;47.04;96791.47;4909938;28;102633;-94
2021/12/01 00:18:03;;;;;;;;;2.50;2.00;;;;;16.42;46.99;96799.66;4912067;28;104377;-94
2021/12/01 00:20:30;;;;;;;;;2.67;2.67;;;;;16.44;47.07;96811.09;4898394;28;103275;-94
2021/12/01 00:22:58;;;;;;;;;3.00;3.00;;;;;16.44;46.99;96816.53;4913604;28;102181;-93
2021/12/01 00:25:25;;;;;;;;;2.50;2.50;;;;;16.44;47.23;96816.53;4908169;28;102540;-94
2021/12/01 00:27:53;;;;;;;;;2.00;2.00;;;;;16.44;46.83;96817.34;4903969;28;104061;-94
2021/12/01 00:30:20;;;;;;;;;2.50;2.50;;;;;16.44;47.01;96822.81;4914288;28;102287;-93
2021/12/01 00:32:47;;;;;;;;;2.00;1.75;;;;;16.45;46.91;96823.63;4904269;28;102358;-94
2021/12/01 00:35:15;;;;;;;;;1.50;1.50;;;;;16.45;47.18;96842.72;4898032;28;102682;-94
2021/12/01 00:37:42;;;;;;;;;2.00;1.00;;;;;16.47;46.77;96832.38;4906326;28;104123;-94
2021/12/01 00:40:10;;;;;;;;;2.00;2.00;;;;;16.47;47.04;96837.81;4898858;28;108268;-93
2021/12/01 00:42:37;;;;;;;;;3.25;2.00;;;;;16.47;46.47;96848.72;4895900;28;102693;-94
2021/12/01 00:45:15;;;;;;;;;4.00;2.00;;;;;16.47;46.85;96854.19;4923947;28;102471;-93
2021/12/01 00:47:49;;;;;;;;;3.75;2.00;;;;;16.46;46.75;96858.00;4918344;28;104062;-94
2021/12/01 00:50:23;;;;;;;;;2.50;2.25;;;;;16.49;46.58;96857.44;4910620;28;102793;-94
2021/12/01 00:52:52;;;;;;;;;3.00;2.00;;;;;16.49;46.14;96866.44;4913891;28;103852;-94
2021/12/01 00:55:19;;;;;;;;;2.00;2.00;;;;;16.49;45.96;96860.16;4929875;28;102388;-94
2021/12/01 00:57:46;;;;;;;;;2.00;2.00;;;;;16.50;46.33;96878.16;4903281;28;104370;-95
2021/12/01 01:00:13;;;;;;;;;3.00;2.00;;;;;16.50;45.92;96872.72;4879143;28;103506;-94
2021/12/01 01:02:40;;;;;;;;;3.50;2.75;;;;;16.50;46.20;96886.34;4891490;28;103888;-95
2021/12/01 01:05:08;;;;;;;;;2.50;1.25;;;;;16.50;46.59;96891.81;4891932;28;102342;-94
2021/12/01 01:07:35;;;;;;;;;3.00;1.50;;;;;16.50;46.63;96902.72;4876465;28;104468;-94
2021/12/01 01:10:15;;;;;;;;;2.75;1.00;;;;;16.51;46.31;96893.44;4922335;28;103628;-94
2021/12/01 01:18:20;;;;;;;;;1.00;1.00;;;;;16.51;45.93;96918.00;4898223;28;104190;-94
2021/12/01 01:20:47;;;;;;;;;2.00;2.00;;;;;16.51;46.76;96928.91;4919844;28;102440;-94
2021/12/01 01:23:14;;;;;;;;;3.25;1.50;;;;;16.50;46.49;96930.84;4905419;28;104820;-94
2021/12/01 01:25:42;;;;;;;;;2.00;1.50;;;;;16.48;46.14;96924.00;4912545;28;102785;-94
2021/12/01 01:28:09;;;;;;;;;2.00;2.00;;;;;16.50;46.19;96932.75;4919102;28;104166;-94
2021/12/01 01:30:36;;;;;;;;;1.75;1.75;;;;;16.51;45.99;96939.84;4919604;28;102575;-94
2021/12/01 01:33:03;;;;;;;;;1.50;1.00;;;;;16.50;45.96;96938.19;4911039;28;102717;-94
2021/12/01 01:35:30;;;;;;;;;2.00;1.00;;;;;16.49;45.92;96947.47;4918864;28;103179;-94
2021/12/01 01:37:58;;;;;;;;;2.25;2.00;;;;;16.49;45.82;96940.09;4914471;28;104368;-94
2021/12/01 01:40:25;;;;;;;;;1.75;1.75;;;;;16.50;46.16;96954.56;4889888;28;102376;-94
2021/12/01 01:42:52;;;;;;;;;2.00;1.50;;;;;16.49;46.42;96958.38;4915654;28;102381;-93
2021/12/01 01:45:19;;;;;;;;;3.00;2.00;;;;;16.49;46.31;96953.75;4922312;28;105940;-94
2021/12/01 01:47:49;;;;;;;;;1.00;1.00;;;;;16.51;45.86;96961.66;4909126;28;103950;-93
2021/12/01 01:50:26;;;;;;;;;3.00;1.00;;;;;16.49;46.21;96969.28;4915688;28;102607;-94
2021/12/01 01:52:53;;;;;;;;;1.00;1.00;;;;;16.50;45.86;96976.41;4920574;28;102389;-94
2021/12/01 01:55:21;;;;;;;;;1.00;1.00;;;;;16.49;45.33;96981.03;4903473;28;102772;-94
2021/12/01 01:57:48;;;;;;;;;1.00;1.00;;;;;16.48;45.94;96982.13;4896308;28;103970;-94
2021/12/01 02:00:15;;;;;;;;;1.00;1.00;;;;;16.47;46.16;96987.88;4921611;28;102972;-93
2021/12/01 02:02:43;;;;;;;;;3.00;1.00;;;;;16.48;46.50;96981.28;4883341;28;102544;-94
2021/12/01 02:05:10;;;;;;;;;2.00;1.00;;;;;16.50;45.90;96992.75;4868667;28;104402;-94
2021/12/01 02:07:38;;;;;;;;;1.00;1.00;;;;;16.47;45.59;96996.06;4880364;28;104087;-93
2021/12/01 02:10:05;;;;;;;;;0.75;0.50;;;;;16.48;45.77;97008.59;4871856;28;102633;-93
2021/12/01 02:12:32;;;;;;;;;1.25;1.00;;;;;16.47;45.83;97021.44;4914731;28;102784;-94
2021/12/01 02:15:00;;;;;;;;;1.00;1.00;;;;;16.45;45.95;97029.06;4908047;28;103405;-93
2021/12/01 02:17:27;;;;;;;;;1.00;1.00;;;;;16.46;45.86;97027.16;4890177;28;109246;-93
2021/12/01 02:19:55;;;;;;;;;1.33;1.00;;;;;16.45;45.75;97034.53;4912023;28;103941;-94
2021/12/01 02:22:22;;;;;;;;;1.00;1.00;;;;;16.47;46.12;97039.72;4902338;28;102496;-94
2021/12/01 02:24:50;;;;;;;;;1.00;1.00;;;;;16.47;46.29;97053.34;4892555;28;102843;-94
2021/12/01 02:27:17;;;;;;;;;0.00;0.00;;;;;16.45;45.47;97045.44;4896390;28;104740;-94
2021/12/01 02:29:44;;;;;;;;;0.75;0.75;;;;;16.45;46.12;97058.25;4911887;28;103709;-94
2021/12/01 02:32:11;;;;;;;;;1.00;1.00;;;;;16.45;46.07;97070.00;4886751;28;102973;-94
2021/12/01 02:34:39;;;;;;;;;1.00;1.00;;;;;16.44;45.53;97068.34;4899191;28;102227;-94
2021/12/01 02:37:06;;;;;;;;;0.00;0.00;;;;;16.45;45.42;97080.91;4896520;28;104657;-93
2021/12/01 02:39:35;;;;;;;;;1.00;0.00;;;;;16.45;45.58;97088.25;4880526;28;102454;-94
2021/12/01 02:42:07;;;;;;;;;1.00;1.00;;;;;16.44;45.90;97090.19;4881034;28;102566;-93
2021/12/01 02:44:35;;;;;;;;;0.25;0.25;;;;;16.44;45.81;97101.09;4907393;28;102750;-94
2021/12/01 02:47:03;;;;;;;;;0.00;0.00;;;;;16.42;45.46;97099.75;4880301;28;104277;-93
2021/12/01 02:49:30;;;;;;;;;1.00;1.00;;;;;16.43;45.87;97098.66;4879264;28;103154;-93
2021/12/01 02:51:58;;;;;;;;;1.00;1.00;;;;;16.42;45.89;97107.91;4903036;28;102712;-94
2021/12/01 02:54:25;;;;;;;;;1.00;1.00;;;;;16.42;45.31;97110.66;4897561;28;102375;-94
2021/12/01 02:56:52;;;;;;;;;1.00;1.00;;;;;16.41;45.34;97111.75;4881308;28;104349;-93
2021/12/01 02:59:19;;;;;;;;;2.33;1.00;;;;;16.41;45.51;97109.84;4923150;28;102340;-93
2021/12/01 03:01:46;;;;;;;;;0.00;0.00;;;;;16.40;45.54;97121.00;4891207;28;108898;-93
2021/12/01 03:04:14;;;;;;;;;0.00;0.00;;;;;16.41;45.77;97122.66;4907879;28;102680;-94
2021/12/01 03:06:43;;;;;;;;;1.25;1.00;;;;;16.40;45.33;97121.00;4873503;28;104079;-94
2021/12/01 03:09:12;;;;;;;;;0.50;0.50;;;;;16.40;45.07;97123.72;4877434;28;102381;-93
2021/12/01 03:11:39;;;;;;;;;1.00;0.00;;;;;16.40;45.19;97123.72;4890432;28;102695;-94
2021/12/01 03:14:11;;;;;;;;;0.75;0.75;;;;;16.40;45.83;97121.81;4894744;28;103023;-93
2021/12/01 03:16:38;;;;;;;;;0.67;0.00;;;;;16.39;45.73;97133.81;4878915;28;104390;-94
2021/12/01 03:19:05;;;;;;;;;1.00;0.00;;;;;16.38;45.64;97131.38;4917539;28;102648;-95
2021/12/01 03:21:35;;;;;;;;;0.00;0.00;;;;;16.39;45.74;97147.47;4880987;28;102665;-93
2021/12/01 03:24:02;;;;;;;;;0.00;0.00;;;;;16.33;45.39;97136.84;4922799;28;102561;-95
2021/12/01 03:26:30;;;;;;;;;0.00;0.00;;;;;16.37;45.33;97148.84;4890693;28;104283;-94
2021/12/01 03:28:57;;;;;;;;;0.33;0.33;;;;;16.36;45.25;97141.75;4911070;28;102843;-94
2021/12/01 03:31:24;;;;;;;;;1.00;1.00;;;;;16.36;45.61;97152.66;4906080;28;102715;-95
2021/12/01 03:33:51;;;;;;;;;0.33;0.33;;;;;16.35;45.69;97154.56;4908796;28;105474;-95
2021/12/01 03:36:18;;;;;;;;;0.00;0.00;;;;;16.34;45.84;97150.22;4892474;28;104278;-94
2021/12/01 03:38:46;;;;;;;;;0.00;0.00;;;;;16.35;45.09;97161.94;4896665;28;105289;-94
2021/12/01 03:41:13;;;;;;;;;0.00;0.00;;;;;16.33;45.12;97169.59;4910620;28;102253;-95
2021/12/01 03:43:40;;;;;;;;;0.75;0.75;;;;;16.35;45.47;97181.03;4886520;28;102639;-95
2021/12/01 03:46:07;;;;;;;;;1.00;0.33;;;;;16.34;45.16;97193.03;4915353;28;106856;-94
2021/12/01 03:48:35;;;;;;;;;1.00;0.00;;;;;16.33;45.58;97192.22;4910479;28;103135;-94
2021/12/01 03:51:02;;;;;;;;;0.00;0.00;;;;;16.33;45.60;97192.22;4888229;28;102513;-93
2021/12/01 03:53:29;;;;;;;;;0.00;0.00;;;;;16.35;45.63;97205.56;4915072;28;102738;-95
2021/12/01 03:55:56;;;;;;;;;1.00;1.00;;;;;16.33;45.37;97194.13;4905827;28;104061;-95
2021/12/01 03:58:23;;;;;;;;;0.00;0.00;;;;;16.33;45.15;97197.69;4898352;28;102588;-94
2021/12/01 04:00:50;;;;;;;;;1.00;0.00;;;;;16.33;45.48;97199.59;4894573;28;102588;-95
2021/12/01 04:03:17;;;;;;;;;0.00;0.00;;;;;16.33;45.20;97199.59;4913086;28;102749;-95
2021/12/01 04:05:45;;;;;;;;;0.00;0.00;;;;;16.35;44.87;97205.56;4899612;28;104312;-95
2021/12/01 04:08:12;;;;;;;;;0.00;0.00;;;;;16.33;45.01;97200.41;4908723;28;102167;-95
2021/12/01 04:10:39;;;;;;;;;0.00;0.00;;;;;16.34;45.60;97218.41;4876502;28;103890;-95
2021/12/01 04:13:06;;;;;;;;;1.00;0.00;;;;;16.35;45.80;97216.47;4910382;28;103868;-94
2021/12/01 04:15:33;;;;;;;;;0.33;0.00;;;;;16.35;45.38;97214.56;4898939;28;104022;-94
2021/12/01 04:18:00;;;;;;;;;1.33;0.33;;;;;16.36;44.67;97215.41;4919130;28;102401;-94
2021/12/01 04:20:27;;;;;;;;;1.00;1.00;;;;;16.36;45.05;97213.50;4910544;28;102801;-95
2021/12/01 04:22:55;;;;;;;;;0.00;0.00;;;;;16.35;45.33;97205.56;4922752;28;102237;-94
2021/12/01 04:25:22;;;;;;;;;0.00;0.00;;;;;16.38;45.33;97221.41;4914423;28;104053;-94
2021/12/01 04:27:49;;;;;;;;;0.00;0.00;;;;;16.39;45.65;97225.78;4885435;28;103569;-94
2021/12/01 04:30:18;;;;;;;;;1.50;0.75;;;;;16.39;45.26;97223.06;4913263;28;102558;-94
2021/12/01 04:32:45;;;;;;;;;0.00;0.00;;;;;16.39;44.89;97218.41;4907512;28;103169;-95
2021/12/01 04:35:15;;;;;;;;;1.00;0.50;;;;;16.39;45.21;97223.84;4895190;28;104398;-94
2021/12/01 04:37:42;;;;;;;;;0.00;0.00;;;;;16.40;45.04;97233.69;4881058;28;104201;-93
2021/12/01 04:40:09;;;;;;;;;0.00;0.00;;;;;16.40;45.21;97224.69;4915856;28;102594;-94
2021/12/01 04:42:37;;;;;;;;;0.00;0.00;;;;;16.41;45.49;97235.31;4891179;28;105868;-94
2021/12/01 04:45:06;;;;;;;;;0.00;0.00;;;;;16.41;45.03;97229.06;4901701;28;104113;-94
2021/12/01 04:47:38;;;;;;;;;0.00;0.00;;;;;16.42;45.44;97233.41;4916112;28;102391;-94
2021/12/01 04:50:05;;;;;;;;;0.00;0.00;;;;;16.42;45.43;97234.25;4883695;28;103017;-94
2021/12/01 04:52:33;;;;;;;;;0.00;0.00;;;;;16.43;44.92;97229.59;4914075;28;102439;-91
2021/12/01 04:55:00;;;;;;;;;0.00;0.00;;;;;16.44;45.60;97237.50;4906116;28;104107;-94
2021/12/01 04:57:27;;;;;;;;;0.50;0.00;;;;;16.44;45.24;97239.41;4903327;28;102558;-94
2021/12/01 04:59:54;;;;;;;;;0.00;0.00;;;;;16.45;45.18;97238.31;4911339;28;102440;-95
2021/12/01 05:02:21;;;;;;;;;0.00;0.00;;;;;16.46;45.30;97242.69;4925783;28;103774;-94
2021/12/01 05:04:49;;;;;;;;;1.00;0.33;;;;;16.46;46.05;97245.44;4896778;28;104409;-93
2021/12/01 05:07:17;;;;;;;;;1.00;0.00;;;;;16.48;45.25;97265.06;4909460;28;103524;-94
2021/12/01 05:09:44;;;;;;;;;0.25;0.25;;;;;16.48;45.51;97256.88;4915956;28;102713;-94
2021/12/01 05:12:11;;;;;;;;;1.00;0.00;;;;;16.45;45.12;97247.34;4913982;28;102263;-94
2021/12/01 05:14:38;;;;;;;;;1.00;0.00;;;;;16.47;45.72;97247.91;4906609;28;104113;-95
2021/12/01 05:17:06;;;;;;;;;1.00;1.00;;;;;16.46;45.75;97257.16;4901247;28;103014;-82
2021/12/01 05:19:33;;;;;;;;;0.33;0.33;;;;;16.45;46.23;97254.69;4909217;28;102479;-81
2021/12/01 05:22:00;;;;;;;;;0.00;0.00;;;;;16.43;46.09;97254.16;4918717;28;102579;-82
2021/12/01 05:24:27;;;;;;;;;0.50;0.00;;;;;16.41;46.14;97250.88;4920268;28;104063;-82
2021/12/01 05:26:54;;;;;;;;;0.67;0.67;;;;;16.41;46.39;97248.16;4904715;28;102613;-82
2021/12/01 05:29:23;;;;;;;;;0.50;0.00;;;;;16.39;45.48;97244.88;4903165;28;102780;-83
2021/12/01 05:31:52;;;;;;;;;0.00;0.00;;;;;16.39;46.03;97253.06;4918273;28;102364;-82
2021/12/01 05:34:19;;;;;;;;;0.67;0.67;;;;;16.37;46.05;97258.78;4913618;28;104146;-83
2021/12/01 05:36:46;;;;;;;;;1.00;1.00;;;;;16.37;45.85;97257.97;4912120;28;102705;-83
2021/12/01 05:39:13;;;;;;;;;0.50;0.50;;;;;16.35;45.66;97252.78;4918322;28;102133;-83
2021/12/01 05:41:40;;;;;;;;;2.75;0.75;;;;;16.34;46.11;97251.16;4915105;28;102439;-83
2021/12/01 05:44:07;;;;;;;;;0.50;0.00;;;;;16.33;46.44;97256.88;4891486;28;104072;-83
2021/12/01 05:46:34;;;;;;;;;1.33;1.00;;;;;16.33;46.55;97252.25;4925584;28;102287;-83
2021/12/01 05:49:03;;;;;;;;;1.00;0.00;;;;;16.32;46.46;97245.13;4883516;28;102681;-83
2021/12/01 05:51:30;;;;;;;;;1.50;1.00;;;;;16.31;46.52;97254.41;4896428;28;102324;-83
2021/12/01 05:53:57;;;;;;;;;1.00;1.00;;;;;16.31;46.53;97251.69;4903865;28;104058;-86
2021/12/01 05:56:24;;;;;;;;;2.00;1.00;;;;;16.30;46.30;97263.66;4917261;28;102488;-84
2021/12/01 05:58:51;;;;;;;;;1.75;1.00;;;;;16.27;46.70;97264.22;4897769;28;103758;-84
2021/12/01 06:01:18;;;;;;;;;3.00;2.00;;;;;16.25;46.49;97255.50;4919700;28;102376;-84
2021/12/01 06:03:45;;;;;;;;;4.00;2.00;;;;;16.24;46.76;97258.50;4912528;28;102973;-84
2021/12/01 06:06:12;;;;;;;;;3.00;2.00;;;;;16.23;46.07;97263.13;4895774;28;103404;-83
2021/12/01 06:08:39;;;;;;;;;3.00;2.00;;;;;16.21;46.43;97257.09;4906960;28;102410;-83
2021/12/01 06:11:06;;;;;;;;;1.50;1.25;;;;;16.20;46.24;97265.56;4903560;28;102722;-83
2021/12/01 06:13:33;;;;;;;;;2.75;2.75;;;;;16.19;46.30;97253.03;4907268;28;104037;-82
2021/12/01 06:16:01;;;;;;;;;3.25;3.00;;;;;16.18;46.27;97256.84;4921648;28;102412;-84
2021/12/01 06:18:30;;;;;;;;;3.25;2.25;;;;;16.18;46.03;97256.84;4918785;28;102646;-84
2021/12/01 06:20:57;;;;;;;;;1.50;1.00;;;;;16.18;46.00;97265.00;4923982;28;102646;-83
2021/12/01 06:23:24;;;;;;;;;3.00;1.50;;;;;16.16;46.31;97259.84;4912496;28;107582;-84
2021/12/01 06:25:51;;;;;;;;;2.00;2.00;;;;;16.14;46.19;97253.84;4923885;28;102344;-84
2021/12/01 06:28:18;;;;;;;;;2.50;2.00;;;;;16.14;46.38;97258.47;4912636;28;104557;-84
2021/12/01 06:30:45;;;;;;;;;3.00;2.00;;;;;16.14;46.68;97269.38;4913322;28;102429;-83
2021/12/01 06:33:12;;;;;;;;;2.00;2.00;;;;;16.12;46.45;97261.44;4930343;28;104638;-83
2021/12/01 06:35:46;;;;;;;;;0.50;0.50;;;;;16.11;46.34;97248.09;4913752;28;102299;-83
2021/12/01 06:38:13;;;;;;;;;2.00;2.00;;;;;16.10;46.73;97241.00;4913971;28;103354;-84
2021/12/01 06:40:40;;;;;;;;;3.00;2.00;;;;;16.08;46.12;97254.91;4928191;28;102402;-84
2021/12/01 06:43:07;;;;;;;;;2.75;1.00;;;;;16.05;45.99;97259.00;4911974;28;105222;-84
2021/12/01 06:45:34;;;;;;;;;7.50;4.00;;;;;16.04;46.40;97259.25;4911004;28;102680;-83
2021/12/01 06:48:01;;;;;;;;;2.75;1.75;;;;;16.04;46.63;97259.25;4912325;28;102823;-84
2021/12/01 06:50:28;;;;;;;;;2.00;2.00;;;;;16.02;46.13;97256.00;4911939;28;102478;-84
2021/12/01 06:52:55;;;;;;;;;2.00;2.00;;;;;16.02;46.40;97251.38;4903571;28;104052;-84
2021/12/01 06:55:23;;;;;;;;;1.50;1.50;;;;;16.03;46.75;97236.63;4914427;28;102212;-84
2021/12/01 06:57:50;;;;;;;;;3.75;2.25;;;;;16.02;46.49;97245.91;4921771;28;102654;-84
2021/12/01 07:00:18;;;;;;;;;2.50;2.50;;;;;16.04;46.21;97242.88;4913912;28;102740;-84
2021/12/01 07:02:45;;;;;;;;;2.00;0.00;;;;;16.03;46.02;97236.63;4926268;28;104168;-85
2021/12/01 07:05:12;;;;;;;;;3.00;1.75;;;;;16.02;46.33;97245.91;4909824;28;102494;-84
2021/12/01 07:07:39;;;;;;;;;3.25;2.75;;;;;16.02;46.04;97239.63;4902679;28;103248;-84
2021/12/01 07:10:09;;;;;;;;;2.75;2.25;;;;;16.01;46.44;97252.44;4912313;28;102235;-83
2021/12/01 07:12:36;;;;;;;;;2.25;2.25;;;;;16.01;46.67;97249.72;4904268;28;104148;-83
2021/12/01 07:15:04;;;;;;;;;3.00;3.00;;;;;16.01;46.04;97236.09;4894876;28;110391;-82
2021/12/01 07:17:31;;;;;;;;;3.50;2.25;;;;;16.01;46.36;97249.72;4895363;28;102609;-84
2021/12/01 07:19:58;;;;;;;;;2.00;2.00;;;;;16.01;46.15;97236.09;4911291;28;102662;-84
2021/12/01 07:22:26;;;;;;;;;2.00;2.00;;;;;16.00;46.74;97228.97;4888004;28;104115;-84
2021/12/01 07:24:53;;;;;;;;;1.00;1.00;;;;;16.00;46.59;97231.72;4881553;28;103150;-85
2021/12/01 07:27:20;;;;;;;;;2.00;1.25;;;;;16.00;46.13;97231.72;4899031;28;102447;-84
2021/12/01 07:29:47;;;;;;;;;2.75;2.00;;;;;15.99;46.07;97224.63;4897553;28;102731;-84
2021/12/01 07:32:14;;;;;;;;;3.50;2.00;;;;;15.99;46.39;97219.16;4898782;28;104149;-84
2021/12/01 07:34:42;;;;;;;;;1.00;0.50;;;;;15.99;45.86;97212.88;4896924;28;102515;-83
2021/12/01 07:37:10;;;;;;;;;2.25;2.00;;;;;15.96;46.17;97203.34;4888301;28;104062;-83
2021/12/01 07:39:37;;;;;;;;;1.75;0.25;;;;;15.98;46.28;97206.63;4894710;28;102619;-83
2021/12/01 07:42:05;;;;;;;;;3.00;2.00;;;;;15.99;46.26;97196.53;4901896;28;104137;-83
2021/12/01 07:44:32;;;;;;;;;2.25;2.25;;;;;15.98;45.70;97198.47;4898132;28;102026;-84
2021/12/01 07:46:59;;;;;;;;;2.00;1.75;;;;;15.97;45.94;97204.19;4888527;28;103917;-84
2021/12/01 07:49:26;;;;;;;;;2.00;2.00;;;;;15.97;45.90;97193.28;4909436;28;102569;-83
2021/12/01 07:51:59;;;;;;;;;5.00;2.25;;;;;15.96;45.99;97184.25;4895436;28;104264;-84
2021/12/01 07:54:26;;;;;;;;;3.50;2.75;;;;;15.95;46.18;97177.16;4889969;28;103609;-84
2021/12/01 07:56:53;;;;;;;;;3.00;3.00;;;;;15.93;46.05;97168.47;4898365;28;102834;-84
2021/12/01 07:59:20;;;;;;;;;2.50;1.75;;;;;15.92;46.37;97166.81;4892788;28;103976;-84
2021/12/01 08:01:47;;;;;;;;;3.00;2.00;;;;;15.91;46.16;97162.44;4893683;28;104163;-84
2021/12/01 08:04:14;;;;;;;;;2.75;2.00;;;;;15.91;46.17;97161.63;4890151;28;110556;-84
2021/12/01 08:06:43;;;;;;;;;2.75;2.00;;;;;15.90;46.55;97168.97;4897236;28;102625;-84
2021/12/01 08:09:10;;;;;;;;;4.00;3.00;;;;;15.89;46.57;97159.19;4892696;28;103593;-84
2021/12/01 08:11:40;;;;;;;;;2.00;2.00;;;;;15.89;45.69;97159.19;4879783;28;104572;-84
2021/12/01 08:14:07;;;;;;;;;4.25;1.00;;;;;15.87;46.46;97150.44;4857981;28;102642;-84
2021/12/01 08:16:35;;;;;;;;;3.00;2.25;;;;;15.87;46.48;97155.91;4859276;28;102746;-83
2021/12/01 08:19:02;;;;;;;;;2.00;2.00;;;;;15.87;46.42;97164.06;4863306;28;102309;-84
2021/12/01 08:21:30;;;;;;;;;2.00;2.00;;;;;15.85;46.02;97163.50;4872125;28;108830;-84
2021/12/01 08:24:08;;;;;;;;;2.25;2.00;;;;;15.85;45.83;97158.06;4857959;28;102408;-83
2021/12/01 08:26:37;;;;;;;;;2.00;1.75;;;;;15.85;45.74;97143.66;4856949;28;102513;-83
2021/12/01 08:29:04;;;;;;;;;0.25;0.25;;;;;15.83;46.21;97149.34;4858717;28;102699;-84
2021/12/01 08:31:31;;;;;;;;;2.00;1.00;;;;;15.82;46.22;97142.25;4861886;28;108505;-84
2021/12/01 08:33:58;;;;;;;;;3.00;2.00;;;;;15.81;46.13;97140.63;4868816;28;103088;-84
2021/12/01 08:36:25;;;;;;;;;3.25;2.50;;;;;15.81;46.57;97145.25;4864128;28;103448;-84
2021/12/01 08:38:52;;;;;;;;;3.00;3.00;;;;;15.79;45.90;97137.34;4867064;28;103350;-84
2021/12/01 08:41:19;;;;;;;;;4.00;3.00;;;;;15.79;46.58;97131.91;4857394;28;104254;-84
2021/12/01 08:43:46;;;;;;;;;2.25;2.00;;;;;15.79;46.06;97131.09;4863803;28;102641;-84
2021/12/01 08:46:13;;;;;;;;;3.00;2.00;;;;;15.76;46.24;97121.53;4873379;28;103407;-84
2021/12/01 08:48:40;;;;;;;;;3.75;3.00;;;;;15.77;46.14;97122.34;4865220;28;103149;-84
2021/12/01 08:51:07;;;;;;;;;3.00;3.00;;;;;15.75;46.48;97114.47;4867069;28;104171;-84
2021/12/01 08:53:36;;;;;;;;;4.00;3.00;;;;;15.74;45.99;97114.72;4863427;28;102609;-84
2021/12/01 08:56:03;;;;;;;;;1.00;1.00;;;;;15.74;46.33;97115.53;4857016;28;102417;-84
2021/12/01 08:58:30;;;;;;;;;3.00;1.75;;;;;15.73;45.90;97113.91;4866365;28;102646;-84
2021/12/01 09:00:57;;;;;;;;;2.00;2.00;;;;;15.72;46.40;97114.16;4862616;28;104037;-84
2021/12/01 09:03:25;;;;;;;;;2.00;2.00;;;;;15.72;46.14;97105.97;4858080;28;102211;-84
2021/12/01 09:05:52;;;;;;;;;3.00;2.50;;;;;15.70;46.18;97114.44;4860172;28;102651;-83
2021/12/01 09:08:21;;;;;;;;;2.50;2.00;;;;;15.68;46.55;97116.63;4866042;28;102553;-84
2021/12/01 09:10:49;;;;;;;;;2.75;2.00;;;;;15.68;46.35;97113.88;4864317;28;104090;-84
2021/12/01 09:13:16;;;;;;;;;3.25;2.50;;;;;15.67;46.09;97111.44;4882406;28;103751;-83
2021/12/01 09:15:44;;;;;;;;;2.50;1.75;;;;;15.66;46.17;97105.19;4887328;28;102373;-84
2021/12/01 09:18:11;;;;;;;;;4.00;3.00;;;;;15.65;46.45;97102.72;4909713;28;102142;-84
2021/12/01 09:20:38;;;;;;;;;2.00;2.00;;;;;15.65;46.27;97092.63;4904417;28;104074;-83
2021/12/01 09:23:05;;;;;;;;;4.25;2.00;;;;;15.64;46.08;97088.28;4895596;28;104168;-84
2021/12/01 09:25:33;;;;;;;;;2.75;2.25;;;;;15.63;46.22;97079.28;4911400;28;102625;-84
2021/12/01 09:28:16;;;;;;;;;2.00;1.00;;;;;15.62;46.13;97071.38;4915641;28;102491;-83
2021/12/01 09:30:43;;;;;;;;;3.50;3.25;;;;;15.62;46.56;97072.19;4908639;28;104092;-84
2021/12/01 09:33:12;;;;;;;;;3.00;2.00;;;;;15.62;46.13;97057.75;4929007;28;102231;-83
2021/12/01 09:35:39;;;;;;;;;2.50;1.25;;;;;15.60;46.32;97051.75;4917064;28;102341;-83
2021/12/01 09:38:06;;;;;;;;;3.00;2.00;;;;;15.60;46.34;97052.56;4917257;28;102663;-83
2021/12/01 09:40:33;;;;;;;;;5.25;3.00;;;;;15.61;46.30;97065.13;4916151;28;103458;-84
2021/12/01 09:43:00;;;;;;;;;1.00;1.00;;;;;15.61;45.80;97065.13;4931292;28;103144;-84
2021/12/01 09:45:28;;;;;;;;;4.50;1.50;;;;;15.61;46.10;97053.41;4913920;28;103175;-84
2021/12/01 09:47:55;;;;;;;;;2.25;1.75;;;;;15.61;45.87;97056.13;4916366;28;102146;-84
2021/12/01 09:50:22;;;;;;;;;2.00;1.75;;;;;15.60;46.34;97065.38;4930844;28;104215;-84
2021/12/01 09:52:50;;;;;;;;;3.75;2.00;;;;;15.61;46.30;97069.75;4901580;28;102760;-85
2021/12/01 09:55:17;;;;;;;;;2.00;2.00;;;;;15.60;46.15;97063.47;4887789;28;102399;-84
2021/12/01 09:58:02;;;;;;;;;3.75;3.00;;;;;15.61;46.70;97064.28;4920521;28;102138;-84
2021/12/01 10:00:29;;;;;;;;;2.00;1.50;;;;;15.61;46.19;97053.41;4911854;28;104216;-84
2021/12/01 10:02:57;;;;;;;;;2.00;2.00;;;;;15.60;46.26;97047.13;4902344;28;103356;-84
2021/12/01 10:05:51;;;;;;;;;4.50;2.50;;;;;15.61;45.92;97037.06;4900501;28;102645;-84
2021/12/01 10:08:26;;;;;;;;;3.75;3.00;;;;;15.60;46.11;97036.22;4910208;28;102489;-84
2021/12/01 10:10:53;;;;;;;;;1.50;1.50;;;;;15.61;46.23;97034.31;4907119;28;103667;-84
2021/12/01 10:13:30;;;;;;;;;4.75;3.50;;;;;15.61;46.10;97028.88;4897900;28;102299;-84
2021/12/01 10:15:59;;;;;;;;;3.25;2.75;;;;;15.60;46.08;97021.78;4892752;28;102359;-84
2021/12/01 10:18:27;;;;;;;;;4.00;3.00;;;;;15.60;46.52;97028.06;4908536;28;102851;-84
2021/12/01 10:20:59;;;;;;;;;1.00;1.00;;;;;15.59;46.40;97026.41;4913179;28;104223;-84
2021/12/01 10:23:26;;;;;;;;;3.00;2.00;;;;;15.60;45.84;97019.06;4931580;28;105278;-84
2021/12/01 10:25:56;;;;;;;;;1.50;1.50;;;;;15.59;46.23;97017.41;4898415;28;102908;-84
2021/12/01 10:28:41;;;;;;;;;4.50;4.00;;;;;15.58;46.03;97010.31;4887975;28;102936;-84
2021/12/01 10:31:09;;;;;;;;;2.00;2.00;;;;;15.57;45.98;96997.81;4896530;28;108943;-83
2021/12/01 10:33:37;;;;;;;;;3.00;3.00;;;;;15.57;46.46;97003.25;4923375;28;102573;-83
2021/12/01 10:36:07;;;;;;;;;2.50;2.50;;;;;15.57;46.25;96989.66;4909745;28;107014;-84
2021/12/01 10:38:40;;;;;;;;;2.50;2.00;;;;;15.56;45.99;96990.72;4908387;28;102866;-84
2021/12/01 10:41:12;;;;;;;;;2.00;2.00;;;;;15.56;45.96;96991.56;4908725;28;108968;-83
2021/12/01 10:43:47;;;;;;;;;2.00;2.00;;;;;15.55;46.15;96987.19;4912091;28;103177;-83
2021/12/01 10:46:16;;;;;;;;;2.25;2.25;;;;;15.54;45.89;96971.91;4909134;28;103671;-84
2021/12/01 10:48:46;;;;;;;;;3.00;2.00;;;;;15.54;45.70;96976.53;4928854;28;103212;-84
2021/12/01 10:51:31;;;;;;;;;4.00;2.25;;;;;15.52;46.18;96974.13;4894593;28;104100;-83
2021/12/01 10:53:59;;;;;;;;;3.50;2.00;;;;;15.52;45.56;96979.56;4911652;28;102740;-84
2021/12/01 10:56:26;;;;;;;;;4.25;4.00;;;;;15.51;46.09;96967.03;4916126;28;102593;-84
2021/12/01 10:58:52;;;;;;;;;1.25;1.00;;;;;15.52;46.02;96970.56;4915520;28;101999;-84
2021/12/01 11:01:21;;;;;;;;;2.00;2.00;;;;;15.51;46.01;96961.56;4906235;28;104067;-84
2021/12/01 11:03:50;;;;;;;;;3.00;2.00;;;;;15.50;46.15;96948.19;4910066;28;102634;-84
2021/12/01 11:06:21;;;;;;;;;3.25;2.50;;;;;15.51;45.66;96945.22;4916637;28;102534;-84
2021/12/01 11:08:55;;;;;;;;;3.25;2.75;;;;;15.50;45.65;96942.75;4906424;28;103110;-84
2021/12/01 11:11:23;;;;;;;;;3.00;3.00;;;;;15.49;46.10;96930.22;4899484;28;104158;-84
2021/12/01 11:14:16;;;;;;;;;3.00;2.00;;;;;15.47;45.56;96911.44;4915257;28;102600;-83
2021/12/01 11:16:43;;;;;;;;;3.00;2.25;;;;;15.49;45.76;96908.44;4930878;28;102763;-83
2021/12/01 11:19:11;;;;;;;;;3.25;2.75;;;;;15.46;45.99;96906.25;4907048;28;102647;-83
2021/12/01 11:21:39;;;;;;;;;4.00;3.00;;;;;15.46;45.61;96898.06;4924096;28;104359;-83
2021/12/01 11:24:10;;;;;;;;;3.50;3.50;;;;;15.44;45.83;96894.81;4928764;28;102401;-84
2021/12/01 11:26:48;;;;;;;;;5.75;3.00;;;;;15.44;45.89;96889.38;4887071;28;102405;-83
2021/12/01 11:29:36;;;;;;;;;3.50;3.50;;;;;15.44;45.86;96897.53;4909455;28;103014;-84
2021/12/01 11:32:05;;;;;;;;;3.25;3.25;;;;;15.44;46.29;96894.81;4895994;28;108462;-83
2021/12/01 11:34:32;;;;;;;;;3.50;2.50;;;;;15.43;45.84;96885.00;4924998;28;102277;-83